createdAt,value
2017-11-13T00:02:14.851Z,31.17
2017-11-13T00:04:45.347Z,31.33
2017-11-13T00:07:15.028Z,25.83
2017-11-13T00:09:44.742Z,28.55
2017-11-13T00:12:14.244Z,26.98
2017-11-13T00:14:43.945Z,26.37
2017-11-13T00:17:13.678Z,26.27
2017-11-13T00:19:43.344Z,24.98
2017-11-13T00:22:13.069Z,22.73
2017-11-13T00:24:42.556Z,22.17
2017-11-13T00:27:13.047Z,22.50
2017-11-13T00:29:42.732Z,23.67
2017-11-13T00:32:12.443Z,24.42
2017-11-13T00:34:42.196Z,20.42
2017-11-13T00:37:11.880Z,20.83
2017-11-13T00:39:41.627Z,19.60
2017-11-13T00:42:12.081Z,15.73
2017-11-13T00:44:41.796Z,16.20
2017-11-13T00:47:11.551Z,21.77
2017-11-13T00:49:41.242Z,19.55
2017-11-13T00:52:10.972Z,15.52
2017-11-13T00:54:40.689Z,15.63
2017-11-13T00:57:10.400Z,13.77
2017-11-13T00:59:40.088Z,14.60
2017-11-13T01:02:09.792Z,11.82
2017-11-13T01:04:39.507Z,10.98
2017-11-13T01:07:09.519Z,12.15
2017-11-13T01:09:40.072Z,11.43
2017-11-13T01:12:09.416Z,12.25
2017-11-13T01:14:39.914Z,10.38
2017-11-13T01:17:09.571Z,10.77
2017-11-13T01:19:39.457Z,9.57
2017-11-13T01:22:09.111Z,9.50
2017-11-13T01:24:38.855Z,9.48
2017-11-13T01:27:08.545Z,8.23
2017-11-13T01:29:38.270Z,7.68
2017-11-13T01:32:08.005Z,6.90
2017-11-13T01:34:37.319Z,9.50
2017-11-13T01:37:06.667Z,9.98
2017-11-13T01:39:36.057Z,7.95
2017-11-13T01:42:05.392Z,13.18
2017-11-13T01:44:34.846Z,9.52
2017-11-13T01:47:04.202Z,14.60
2017-11-13T01:49:33.544Z,9.23
2017-11-13T01:52:02.827Z,7.30
2017-11-13T01:54:32.953Z,13.95
2017-11-13T01:57:02.869Z,12.25
2017-11-13T01:59:33.043Z,13.02
2017-11-13T02:02:02.729Z,9.60
2017-11-13T02:04:32.222Z,9.48
2017-11-13T02:07:01.013Z,9.15
2017-11-13T02:09:29.814Z,10.68
2017-11-13T02:11:58.963Z,9.75
2017-11-13T02:14:27.956Z,12.70
2017-11-13T02:16:57.123Z,12.18
2017-11-13T02:19:28.111Z,11.65
2017-11-13T02:21:57.881Z,12.02
2017-11-13T02:24:26.912Z,13.18
2017-11-13T02:26:56.836Z,14.75
2017-11-13T02:29:25.816Z,18.90
2017-11-13T02:31:55.391Z,17.58
2017-11-13T02:34:24.453Z,15.68
2017-11-13T02:36:53.247Z,15.88
2017-11-13T02:39:22.065Z,16.35
2017-11-13T02:41:50.924Z,16.58
2017-11-13T02:44:20.552Z,13.60
2017-11-13T02:46:49.560Z,17.45
2017-11-13T02:49:18.521Z,19.02
2017-11-13T02:51:47.345Z,17.08
2017-11-13T02:54:16.372Z,21.33
2017-11-13T02:56:45.180Z,22.98
2017-11-13T02:59:14.170Z,16.73
2017-11-13T03:01:43.728Z,18.12
2017-11-13T03:04:13.405Z,17.27
2017-11-13T03:06:42.948Z,16.08
2017-11-13T03:09:12.621Z,21.33
2017-11-13T03:11:42.357Z,19.40
2017-11-13T03:14:11.695Z,17.17
2017-11-13T03:16:41.810Z,17.00
2017-11-13T03:19:12.296Z,15.07
2017-11-13T03:21:41.630Z,16.62
2017-11-13T03:24:11.362Z,18.27
2017-11-13T03:26:41.809Z,22.87
2017-11-13T03:29:11.521Z,17.73
2017-11-13T03:31:40.847Z,19.77
2017-11-13T03:34:10.556Z,19.80
2017-11-13T03:36:40.260Z,20.30
2017-11-13T03:39:09.991Z,19.75
2017-11-13T03:41:39.723Z,19.95
2017-11-13T03:44:09.405Z,24.90
2017-11-13T03:46:39.128Z,18.90
2017-11-13T03:49:08.647Z,24.30
2017-11-13T03:51:38.381Z,22.50
2017-11-13T03:54:08.087Z,23.02
2017-11-13T03:56:39.355Z,24.92
2017-11-13T03:59:09.045Z,20.88
2017-11-13T04:01:39.537Z,22.02
2017-11-13T04:04:09.013Z,20.35
2017-11-13T04:06:38.724Z,21.95
2017-11-13T04:09:08.460Z,23.73
2017-11-13T04:11:38.417Z,23.48
2017-11-13T04:14:08.536Z,17.77
2017-11-13T04:16:38.033Z,18.77
2017-11-13T04:19:08.335Z,26.05
2017-11-13T04:21:38.016Z,14.63
2017-11-13T04:24:07.751Z,16.87
2017-11-13T04:26:37.220Z,14.93
2017-11-13T04:29:06.949Z,15.73
2017-11-13T04:31:36.663Z,10.38
2017-11-13T04:34:07.416Z,14.63
2017-11-13T04:36:37.083Z,16.33
2017-11-13T04:39:06.832Z,10.27
2017-11-13T04:41:36.538Z,9.50
2017-11-13T04:44:06.248Z,12.70
2017-11-13T04:46:36.264Z,10.70
2017-11-13T04:49:05.939Z,10.73
2017-11-13T04:51:35.673Z,9.82
2017-11-13T04:54:05.346Z,13.52
2017-11-13T04:56:35.805Z,7.75
2017-11-13T04:59:05.189Z,7.55
2017-11-13T05:01:34.844Z,11.55
2017-11-13T05:04:04.555Z,7.82
2017-11-13T05:06:33.548Z,8.80
2017-11-13T05:09:02.860Z,5.90
2017-11-13T05:11:32.619Z,8.88
2017-11-13T05:14:01.934Z,6.80
2017-11-13T05:16:31.664Z,9.18
2017-11-13T05:19:01.013Z,6.12
2017-11-13T05:21:31.133Z,8.70
2017-11-13T05:24:00.793Z,9.02
2017-11-13T05:26:29.769Z,9.02
2017-11-13T05:28:59.296Z,8.40
2017-11-13T05:31:29.891Z,7.40
2017-11-13T05:33:59.599Z,7.78
2017-11-13T05:36:30.051Z,10.85
2017-11-13T05:38:59.581Z,7.82
2017-11-13T05:41:30.046Z,10.40
2017-11-13T05:43:59.799Z,11.00
2017-11-13T05:46:29.321Z,10.05
2017-11-13T05:48:59.049Z,11.07
2017-11-13T05:51:28.723Z,16.25
2017-11-13T05:53:58.461Z,12.85
2017-11-13T05:56:29.021Z,13.05
2017-11-13T05:58:58.545Z,12.68
2017-11-13T06:01:28.219Z,12.02
2017-11-13T06:03:58.350Z,16.48
2017-11-13T06:06:28.860Z,21.15
2017-11-13T06:08:59.319Z,21.48
2017-11-13T06:11:29.052Z,23.70
2017-11-13T06:13:59.861Z,24.48
2017-11-13T06:16:30.394Z,21.00
2017-11-13T06:19:00.839Z,23.30
2017-11-13T06:21:30.549Z,27.25
2017-11-13T06:24:00.270Z,25.25
2017-11-13T06:26:29.984Z,25.95
2017-11-13T06:28:59.708Z,26.08
2017-11-13T06:31:29.398Z,29.87
2017-11-13T06:33:59.176Z,33.47
2017-11-13T06:36:29.633Z,30.67
2017-11-13T06:38:59.405Z,30.08
2017-11-13T06:41:29.857Z,33.05
2017-11-13T06:44:00.348Z,29.67
2017-11-13T06:46:30.108Z,36.05
2017-11-13T06:48:59.843Z,33.22
2017-11-13T06:51:29.549Z,30.50
2017-11-13T06:53:59.281Z,37.47
2017-11-13T06:56:28.991Z,47.62
2017-11-13T06:58:58.716Z,32.03
2017-11-13T07:01:28.458Z,33.63
2017-11-13T07:03:58.935Z,34.20
2017-11-13T07:06:28.683Z,36.72
2017-11-13T07:08:59.197Z,41.22
2017-11-13T07:11:28.875Z,34.30
2017-11-13T07:13:58.653Z,37.70
2017-11-13T07:16:28.396Z,38.88
2017-11-13T07:18:58.119Z,32.03
2017-11-13T07:21:27.815Z,40.47
2017-11-13T07:23:57.460Z,27.23
2017-11-13T07:26:27.139Z,27.92
2017-11-13T07:28:56.690Z,30.62
2017-11-13T07:31:26.172Z,29.65
2017-11-13T07:33:55.669Z,25.70
2017-11-13T07:36:25.409Z,23.48
2017-11-13T07:38:55.557Z,29.83
2017-11-13T07:41:25.429Z,28.67
2017-11-13T07:43:55.153Z,24.95
2017-11-13T07:46:24.867Z,28.38
2017-11-13T07:48:54.644Z,30.88
2017-11-13T07:51:24.355Z,27.80
2017-11-13T07:53:54.849Z,36.63
2017-11-13T07:56:24.251Z,31.48
2017-11-13T07:58:54.249Z,26.12
2017-11-13T08:01:24.768Z,26.77
2017-11-13T08:03:55.264Z,23.80
2017-11-13T08:06:24.999Z,24.73
2017-11-13T08:08:55.456Z,23.95
2017-11-13T08:11:25.956Z,26.12
2017-11-13T08:13:55.637Z,28.30
2017-11-13T08:16:25.365Z,25.40
2017-11-13T08:18:55.089Z,29.65
2017-11-13T08:21:24.612Z,25.17
2017-11-13T08:23:55.167Z,28.30
2017-11-13T08:26:24.710Z,35.90
2017-11-13T08:28:53.585Z,22.52
2017-11-13T08:31:22.953Z,21.75
2017-11-13T08:33:53.460Z,25.88
2017-11-13T08:36:22.497Z,22.92
2017-11-13T08:38:52.190Z,25.80
2017-11-13T08:41:21.925Z,21.40
2017-11-13T08:43:51.600Z,22.52
2017-11-13T08:46:22.113Z,24.08
2017-11-13T08:48:52.596Z,21.87
2017-11-13T08:51:22.295Z,33.45
2017-11-13T08:53:52.021Z,23.45
2017-11-13T08:56:21.688Z,31.87
2017-11-13T08:58:52.195Z,23.52
2017-11-13T09:01:21.908Z,24.70
2017-11-13T09:03:51.635Z,21.20
2017-11-13T09:06:22.078Z,26.25
2017-11-13T09:08:51.835Z,24.87
2017-11-13T09:11:21.514Z,22.85
2017-11-13T09:13:51.246Z,21.75
2017-11-13T09:16:20.983Z,23.75
2017-11-13T09:18:50.699Z,24.45
2017-11-13T09:21:20.517Z,18.30
2017-11-13T09:23:50.991Z,25.05
2017-11-13T09:26:20.708Z,25.08
2017-11-13T09:28:50.448Z,23.48
2017-11-13T09:31:20.150Z,23.08
2017-11-13T09:33:49.887Z,28.67
2017-11-13T09:36:18.882Z,25.67
2017-11-13T09:38:48.428Z,21.92
2017-11-13T09:41:18.077Z,24.77
2017-11-13T09:43:47.755Z,29.70
2017-11-13T09:46:17.739Z,28.08
2017-11-13T09:48:47.872Z,27.87
2017-11-13T09:51:17.039Z,24.50
2017-11-13T09:53:46.070Z,23.15
2017-11-13T09:56:15.760Z,20.10
2017-11-13T09:58:45.956Z,21.12
2017-11-13T10:01:15.588Z,22.52
2017-11-13T10:03:45.356Z,18.70
2017-11-13T10:06:15.083Z,16.52
2017-11-13T10:08:44.425Z,16.60
2017-11-13T10:11:14.733Z,18.85
2017-11-13T10:13:44.547Z,14.82
2017-11-13T10:16:14.447Z,20.08
2017-11-13T10:18:43.975Z,16.12
2017-11-13T10:21:13.879Z,19.08
2017-11-13T10:23:43.428Z,15.70
2017-11-13T10:26:12.568Z,14.50
2017-11-13T10:28:42.089Z,15.70
2017-11-13T10:31:11.663Z,15.05
2017-11-13T10:33:41.154Z,20.90
2017-11-13T10:36:10.755Z,27.60
2017-11-13T10:38:40.265Z,15.40
2017-11-13T10:41:09.836Z,12.63
2017-11-13T10:43:40.288Z,16.05
2017-11-13T10:46:09.873Z,17.83
2017-11-13T10:48:40.346Z,16.77
2017-11-13T10:51:09.703Z,14.05
2017-11-13T10:53:39.859Z,13.75
2017-11-13T10:56:09.777Z,15.38
2017-11-13T10:58:39.755Z,14.95
2017-11-13T11:01:08.592Z,12.15
2017-11-13T11:03:38.302Z,14.40
2017-11-13T11:06:07.642Z,25.20
2017-11-13T11:08:36.493Z,14.90
2017-11-13T11:11:06.559Z,16.37
2017-11-13T11:13:35.735Z,13.70
2017-11-13T11:16:11.091Z,16.73
2017-11-13T11:18:41.138Z,17.15
2017-11-13T11:24:10.138Z,14.63
2017-11-13T11:26:55.280Z,9.05
2017-11-13T11:29:30.496Z,16.98
2017-11-13T11:32:14.904Z,11.48
2017-11-13T11:34:50.035Z,10.10
2017-11-13T11:37:22.361Z,11.80
2017-11-13T11:39:51.853Z,13.32
2017-11-13T11:42:21.332Z,10.55
2017-11-13T11:45:02.088Z,16.58
2017-11-13T11:47:50.064Z,10.70
2017-11-13T11:50:19.387Z,11.23
2017-11-13T11:52:48.901Z,10.57
2017-11-13T11:55:29.915Z,12.57
2017-11-13T11:57:59.410Z,8.95
2017-11-13T12:00:28.949Z,10.48
2017-11-13T12:02:58.112Z,7.47
2017-11-13T12:05:27.239Z,9.93
2017-11-13T12:07:56.904Z,14.65
2017-11-13T12:10:26.307Z,13.73
2017-11-13T12:12:56.027Z,8.68
2017-11-13T12:15:25.425Z,11.88
2017-11-13T12:17:55.162Z,8.38
2017-11-13T12:20:24.551Z,9.05
2017-11-13T12:22:54.371Z,14.30
2017-11-13T12:25:23.836Z,8.93
2017-11-13T12:27:54.336Z,9.45
2017-11-13T12:30:24.005Z,9.57
2017-11-13T12:32:53.737Z,13.55
2017-11-13T12:35:23.440Z,8.82
2017-11-13T12:37:53.161Z,16.70
2017-11-13T12:40:22.896Z,13.45
2017-11-13T12:42:54.067Z,11.07
2017-11-13T12:45:23.776Z,9.00
2017-11-13T12:47:53.308Z,13.55
2017-11-13T12:50:23.030Z,9.70
2017-11-13T12:52:52.692Z,12.30
2017-11-13T12:55:22.412Z,8.18
2017-11-13T12:57:52.310Z,9.38
2017-11-13T13:00:21.312Z,11.48
2017-11-13T13:02:50.904Z,7.43
2017-11-13T13:05:20.599Z,8.10
2017-11-13T13:07:50.339Z,8.90
2017-11-13T13:10:19.474Z,12.30
2017-11-13T13:12:49.945Z,10.27
2017-11-13T13:15:19.645Z,5.60
2017-11-13T13:17:48.812Z,6.78
2017-11-13T13:20:19.239Z,9.73
2017-11-13T13:22:49.706Z,8.88
2017-11-13T13:25:19.391Z,10.55
2017-11-13T13:27:48.922Z,7.35
2017-11-13T13:30:18.452Z,6.80
2017-11-13T13:32:48.162Z,6.30
2017-11-13T13:35:17.656Z,7.18
2017-11-13T13:37:47.359Z,10.00
2017-11-13T13:40:16.893Z,6.68
2017-11-13T13:42:46.584Z,6.20
2017-11-13T13:45:16.372Z,7.50
2017-11-13T13:47:46.124Z,7.60
2017-11-13T13:50:15.810Z,13.45
2017-11-13T13:52:45.584Z,7.40
2017-11-13T13:55:15.263Z,5.40
2017-11-13T13:57:44.811Z,6.00
2017-11-13T14:00:14.279Z,9.80
2017-11-13T14:02:43.766Z,5.87
2017-11-13T14:05:13.495Z,7.47
2017-11-13T14:07:42.979Z,9.48
2017-11-13T14:10:12.696Z,6.70
2017-11-13T14:12:42.410Z,9.68
2017-11-13T14:15:12.830Z,6.47
2017-11-13T14:17:42.540Z,7.87
2017-11-13T14:20:12.223Z,9.18
2017-11-13T14:22:41.938Z,13.27
2017-11-13T14:25:11.635Z,7.12
2017-11-13T14:27:41.354Z,6.47
2017-11-13T14:30:11.034Z,8.38
2017-11-13T14:32:40.548Z,8.20
2017-11-13T14:35:11.025Z,8.90
2017-11-13T14:37:40.726Z,8.48
2017-11-13T14:40:10.701Z,6.95
2017-11-13T14:42:40.971Z,8.20
2017-11-13T14:45:10.487Z,10.93
2017-11-13T14:47:40.273Z,10.15
2017-11-13T14:50:09.978Z,9.02
2017-11-13T14:52:39.709Z,7.65
2017-11-13T14:55:09.390Z,8.30
2017-11-13T14:57:39.087Z,7.20
2017-11-13T15:00:08.822Z,7.25
2017-11-13T15:02:38.745Z,6.65
2017-11-13T15:05:08.471Z,9.13
2017-11-13T15:07:38.158Z,6.82
2017-11-13T15:10:07.881Z,10.15
2017-11-13T15:12:37.607Z,9.40
2017-11-13T15:15:07.298Z,8.75
2017-11-13T15:17:36.997Z,11.82
2017-11-13T15:20:06.765Z,7.93
2017-11-13T15:22:37.341Z,8.88
2017-11-13T15:25:07.651Z,12.20
2017-11-13T15:27:37.379Z,14.18
2017-11-13T15:30:06.973Z,13.02
2017-11-13T15:32:37.312Z,7.40
2017-11-13T15:35:07.801Z,6.15
2017-11-13T15:37:38.258Z,8.48
2017-11-13T15:40:07.970Z,9.90
2017-11-13T15:42:37.636Z,5.87
2017-11-13T15:45:07.936Z,7.65
2017-11-13T15:47:37.671Z,5.62
2017-11-13T15:50:08.134Z,9.15
2017-11-13T15:52:37.868Z,6.18
2017-11-13T15:55:07.576Z,8.85
2017-11-13T15:57:37.283Z,8.77
2017-11-13T16:00:06.968Z,7.50
2017-11-13T16:02:36.706Z,12.75
2017-11-13T16:05:06.423Z,6.80
2017-11-13T16:07:36.125Z,8.13
2017-11-13T16:10:06.159Z,7.97
2017-11-13T16:12:35.860Z,8.27
2017-11-13T16:15:05.638Z,9.32
2017-11-13T16:17:36.102Z,9.73
2017-11-13T16:20:05.768Z,9.40
2017-11-13T16:22:36.247Z,10.02
2017-11-13T16:25:06.172Z,10.10
2017-11-13T16:27:35.871Z,14.73
2017-11-13T16:30:05.267Z,7.15
2017-11-13T16:32:34.987Z,11.60
2017-11-13T16:35:03.971Z,9.93
2017-11-13T16:37:33.643Z,10.45
2017-11-13T16:40:03.275Z,9.63
2017-11-13T16:42:32.822Z,7.03
2017-11-13T16:45:02.337Z,12.88
2017-11-13T16:47:31.828Z,9.80
2017-11-13T16:50:01.556Z,9.80
2017-11-13T16:52:31.316Z,9.00
2017-11-13T16:55:01.041Z,8.18
2017-11-13T16:57:30.720Z,8.18
2017-11-13T17:00:00.418Z,12.10
2017-11-13T17:02:29.975Z,9.88
2017-11-13T17:04:59.648Z,14.35
2017-11-13T17:07:29.370Z,11.93
2017-11-13T17:09:59.054Z,11.88
2017-11-13T17:12:29.548Z,7.22
2017-11-13T17:14:58.907Z,7.70
2017-11-13T17:17:28.599Z,11.98
2017-11-13T17:19:59.080Z,11.23
2017-11-13T17:22:28.785Z,10.45
2017-11-13T17:25:00.023Z,10.23
2017-11-13T17:27:29.857Z,14.07
2017-11-13T17:29:59.607Z,10.80
2017-11-13T17:32:29.312Z,7.87
2017-11-13T17:34:59.752Z,10.05
2017-11-13T17:37:29.498Z,14.35
2017-11-13T17:39:59.196Z,71.80
2017-11-13T17:42:28.929Z,27.10
2017-11-13T17:44:58.423Z,18.10
2017-11-13T17:47:28.157Z,9.18
2017-11-13T17:49:57.863Z,9.23
2017-11-13T17:52:27.556Z,8.50
2017-11-13T17:54:57.048Z,7.65
2017-11-13T17:57:26.583Z,7.50
2017-11-13T17:59:56.293Z,9.75
2017-11-13T18:02:25.763Z,14.98
2017-11-13T18:04:55.147Z,7.80
2017-11-13T18:07:24.826Z,11.65
2017-11-13T18:09:54.529Z,8.38
2017-11-13T18:12:24.239Z,9.98
2017-11-13T18:14:53.726Z,8.85
2017-11-13T18:17:23.478Z,4.78
2017-11-13T18:19:53.989Z,7.82
2017-11-13T18:22:23.830Z,10.57
2017-11-13T18:24:54.284Z,10.93
2017-11-13T18:27:24.050Z,10.82
2017-11-13T18:29:53.783Z,9.25
2017-11-13T18:32:24.229Z,6.10
2017-11-13T18:34:54.695Z,7.82
2017-11-13T18:37:24.533Z,7.45
2017-11-13T18:39:54.383Z,6.30
2017-11-13T18:42:24.867Z,11.40
2017-11-13T18:44:54.587Z,6.68
2017-11-13T18:47:24.290Z,8.75
2017-11-13T18:49:53.794Z,6.03
2017-11-13T18:52:23.464Z,6.50
2017-11-13T18:54:53.223Z,4.57
2017-11-13T18:57:22.917Z,8.30
2017-11-13T18:59:52.501Z,5.25
2017-11-13T19:02:22.684Z,8.02
2017-11-13T19:04:52.493Z,5.78
2017-11-13T19:07:22.948Z,7.55
2017-11-13T19:09:53.473Z,9.23
2017-11-13T19:12:23.605Z,6.20
2017-11-13T19:14:54.055Z,5.75
2017-11-13T19:17:23.767Z,6.87
2017-11-13T19:19:53.236Z,4.30
2017-11-13T19:22:23.720Z,5.57
2017-11-13T19:24:53.424Z,13.75
2017-11-13T19:27:22.783Z,4.55
2017-11-13T19:29:53.249Z,6.72
2017-11-13T19:32:22.926Z,7.20
2017-11-13T19:34:53.427Z,7.35
2017-11-13T19:37:23.130Z,5.93
2017-11-13T19:39:52.951Z,6.25
2017-11-13T19:42:22.338Z,6.68
2017-11-13T19:44:52.148Z,8.15
2017-11-13T19:47:21.962Z,7.20
2017-11-13T19:49:51.868Z,8.85
2017-11-13T19:52:21.939Z,6.82
2017-11-13T19:54:52.209Z,9.57
2017-11-13T19:57:22.230Z,12.63
2017-11-13T19:59:53.172Z,9.65
2017-11-13T20:02:23.596Z,10.75
2017-11-13T20:04:53.713Z,8.80
2017-11-13T20:07:23.834Z,7.57
2017-11-13T20:09:53.852Z,9.98
2017-11-13T20:12:24.278Z,6.32
2017-11-13T20:14:54.397Z,9.18
2017-11-13T20:17:24.312Z,6.43
2017-11-13T20:19:54.149Z,6.93
2017-11-13T20:22:23.994Z,13.02
2017-11-13T20:24:54.517Z,4.55
2017-11-13T20:27:24.292Z,5.37
2017-11-13T20:29:54.047Z,6.25
2017-11-13T20:32:23.773Z,6.28
2017-11-13T20:34:54.297Z,5.35
2017-11-13T20:37:24.742Z,6.68
2017-11-13T20:39:54.463Z,8.18
2017-11-13T20:42:24.826Z,7.32
2017-11-13T20:44:54.554Z,6.20
2017-11-13T20:47:24.278Z,7.22
2017-11-13T20:49:53.997Z,9.07
2017-11-13T20:52:25.041Z,8.05
2017-11-13T20:54:55.286Z,7.62
2017-11-13T20:57:24.634Z,11.10
2017-11-13T20:59:54.155Z,10.40
2017-11-13T21:02:23.624Z,9.60
2017-11-13T21:04:53.356Z,10.40
2017-11-13T21:07:23.010Z,8.23
2017-11-13T21:09:52.721Z,8.65
2017-11-13T21:12:22.452Z,9.68
2017-11-13T21:14:52.223Z,11.18
2017-11-13T21:17:22.700Z,13.20
2017-11-13T21:19:52.602Z,10.00
2017-11-13T21:22:22.607Z,14.43
2017-11-13T21:24:52.325Z,12.57
2017-11-13T21:27:22.004Z,13.00
2017-11-13T21:29:52.500Z,8.98
2017-11-13T21:32:22.193Z,13.98
2017-11-13T21:34:51.924Z,13.32
2017-11-13T21:37:22.485Z,13.25
2017-11-13T21:39:53.110Z,12.20
2017-11-13T21:42:23.532Z,14.52
2017-11-13T21:44:54.045Z,10.68
2017-11-13T21:47:23.715Z,9.10
2017-11-13T21:49:53.559Z,10.93
2017-11-13T21:52:23.755Z,9.68
2017-11-13T21:54:53.429Z,11.10
2017-11-13T21:57:23.935Z,17.80
2017-11-13T21:59:53.608Z,16.12
2017-11-13T22:02:23.853Z,12.07
2017-11-13T22:04:53.575Z,12.63
2017-11-13T22:07:23.248Z,10.60
2017-11-13T22:09:52.956Z,13.80
2017-11-13T22:12:22.609Z,8.90
2017-11-13T22:14:52.911Z,10.40
2017-11-13T22:17:22.588Z,13.93
2017-11-13T22:19:52.350Z,11.02
2017-11-13T22:22:22.054Z,8.27
2017-11-13T22:24:51.724Z,11.18
2017-11-13T22:27:21.480Z,13.98
2017-11-13T22:29:51.143Z,7.30
2017-11-13T22:32:21.111Z,9.80
2017-11-13T22:34:50.807Z,12.65
2017-11-13T22:37:20.524Z,10.88
2017-11-13T22:39:51.976Z,8.60
2017-11-13T22:42:26.376Z,8.32
2017-11-13T22:44:56.196Z,11.40
2017-11-13T22:47:25.946Z,15.43
2017-11-13T22:49:56.379Z,9.38
2017-11-13T22:52:26.932Z,9.23
2017-11-13T22:54:56.594Z,12.43
2017-11-13T22:57:26.308Z,8.55
2017-11-13T22:59:56.491Z,6.93
2017-11-13T23:02:26.165Z,13.60
2017-11-13T23:04:56.507Z,11.38
2017-11-13T23:07:26.217Z,14.23
2017-11-13T23:09:55.916Z,13.07
2017-11-13T23:12:26.388Z,15.35
2017-11-13T23:14:56.080Z,10.60
2017-11-13T23:17:25.781Z,12.27
2017-11-13T23:19:55.304Z,8.63
2017-11-13T23:22:25.692Z,11.40
2017-11-13T23:24:56.185Z,17.77
2017-11-13T23:27:25.861Z,9.02
2017-11-13T23:29:55.802Z,7.20
2017-11-13T23:32:25.479Z,12.13
2017-11-13T23:34:55.247Z,11.38
2017-11-13T23:37:25.688Z,14.68
2017-11-13T23:39:56.158Z,10.77
2017-11-13T23:42:25.672Z,11.10
2017-11-13T23:44:55.192Z,12.93
2017-11-13T23:47:24.684Z,11.07
2017-11-13T23:49:54.399Z,10.45
2017-11-13T23:52:23.959Z,9.13
2017-11-13T23:54:54.211Z,10.32
2017-11-13T23:57:23.935Z,9.95
2017-11-13T23:59:53.622Z,9.82
